createdAt,value
2024-03-06T00:01:45.237Z,8.23
2024-03-06T00:04:46.789Z,7.63
2024-03-06T00:07:48.344Z,7.93
2024-03-06T00:10:49.847Z,7.40
2024-03-06T00:13:51.374Z,6.53
2024-03-06T00:16:52.908Z,6.03
2024-03-06T00:19:54.565Z,8.60
2024-03-06T00:22:56.049Z,10.00
2024-03-06T00:25:57.904Z,9.07
2024-03-06T00:28:59.425Z,7.70
2024-03-06T00:32:00.955Z,7.80
2024-03-06T00:35:02.459Z,7.30
2024-03-06T00:38:04.241Z,9.37
2024-03-06T00:41:05.956Z,8.40
2024-03-06T00:44:07.667Z,7.07
2024-03-06T00:47:09.313Z,9.23
2024-03-06T00:50:10.978Z,7.50
2024-03-06T00:53:12.564Z,7.83
2024-03-06T00:56:14.183Z,7.83
2024-03-06T00:59:15.702Z,7.80
2024-03-06T01:02:17.280Z,10.27
2024-03-06T01:05:18.911Z,8.77
2024-03-06T01:08:20.763Z,9.57
2024-03-06T01:11:22.659Z,10.30
2024-03-06T01:14:24.258Z,11.03
2024-03-06T01:17:25.871Z,12.30
2024-03-06T01:20:27.465Z,10.90
2024-03-06T01:23:28.929Z,11.90
2024-03-06T01:26:30.374Z,9.40
2024-03-06T01:29:32.020Z,11.20
2024-03-06T01:32:34.499Z,9.33
2024-03-06T01:35:35.941Z,9.30
2024-03-06T01:38:39.281Z,8.93
2024-03-06T01:41:51.869Z,8.77
2024-03-06T01:44:53.510Z,9.90
2024-03-06T01:47:55.114Z,11.30
2024-03-06T01:50:57.868Z,8.73
2024-03-06T01:54:01.768Z,9.23
2024-03-06T01:57:04.301Z,11.20
2024-03-06T02:00:08.913Z,9.87
2024-03-06T02:03:10.603Z,9.77
2024-03-06T02:06:12.957Z,7.80
2024-03-06T02:09:15.068Z,9.97
2024-03-06T02:12:17.213Z,10.83
2024-03-06T02:15:18.835Z,9.70
2024-03-06T02:18:20.377Z,8.17
2024-03-06T02:21:25.403Z,8.63
2024-03-06T02:24:26.874Z,9.33
2024-03-06T02:27:28.381Z,9.20
2024-03-06T02:30:31.682Z,12.10
2024-03-06T02:33:35.181Z,8.70
2024-03-06T02:36:37.220Z,8.77
2024-03-06T02:39:38.644Z,9.37
2024-03-06T02:42:40.308Z,10.50
2024-03-06T02:45:41.828Z,8.90
2024-03-06T02:48:43.249Z,9.33
2024-03-06T02:51:44.864Z,7.37
2024-03-06T02:54:46.296Z,8.13
2024-03-06T02:57:47.839Z,8.77
2024-03-06T03:00:49.851Z,11.90
2024-03-06T03:03:52.378Z,9.03
2024-03-06T03:06:53.813Z,10.37
2024-03-06T03:09:55.309Z,10.13
2024-03-06T03:12:56.790Z,8.53
2024-03-06T03:15:58.465Z,7.93
2024-03-06T03:18:59.934Z,7.53
2024-03-06T03:22:01.599Z,8.60
2024-03-06T03:25:03.049Z,8.10
2024-03-06T03:28:05.110Z,7.63
2024-03-06T03:31:10.302Z,7.80
2024-03-06T03:34:11.773Z,9.37
2024-03-06T03:37:14.303Z,10.87
2024-03-06T03:40:16.266Z,6.90
2024-03-06T03:43:18.425Z,7.57
2024-03-06T03:46:19.861Z,9.57
2024-03-06T03:49:21.399Z,8.17
2024-03-06T03:52:23.385Z,7.40
2024-03-06T03:55:25.968Z,9.63
2024-03-06T03:58:27.562Z,8.17
2024-03-06T04:01:29.091Z,8.27
2024-03-06T04:04:30.769Z,8.57
2024-03-06T04:07:32.593Z,9.13
2024-03-06T04:10:34.088Z,8.07
2024-03-06T04:13:39.536Z,8.67
2024-03-06T04:16:41.060Z,10.93
2024-03-06T04:19:42.555Z,10.00
2024-03-06T04:22:44.136Z,6.40
2024-03-06T04:25:45.750Z,7.37
2024-03-06T04:28:47.368Z,8.53
2024-03-06T04:31:48.989Z,11.83
2024-03-06T04:34:50.777Z,8.20
2024-03-06T04:37:52.378Z,10.73
2024-03-06T04:40:53.877Z,8.77
2024-03-06T04:43:55.370Z,10.17
2024-03-06T04:46:57.458Z,8.70
2024-03-06T04:49:59.360Z,9.03
2024-03-06T04:53:00.866Z,8.80
2024-03-06T04:56:02.444Z,10.10
2024-03-06T04:59:04.478Z,7.83
2024-03-06T05:02:06.283Z,8.53
2024-03-06T05:58:22.636Z,8.07
2024-03-06T06:01:24.284Z,8.20
2024-03-06T06:04:26.725Z,14.03
2024-03-06T06:07:28.603Z,12.37
2024-03-06T06:10:30.041Z,9.13
2024-03-06T06:13:32.021Z,10.27
2024-03-06T06:16:41.723Z,8.83
2024-03-06T06:19:44.836Z,7.93
2024-03-06T06:22:46.339Z,10.10
2024-03-06T06:25:47.797Z,11.90
2024-03-06T06:28:49.477Z,9.13
2024-03-06T06:31:51.085Z,10.00
2024-03-06T06:34:52.930Z,10.33
2024-03-06T06:37:54.422Z,10.63
2024-03-06T06:40:56.812Z,9.23
2024-03-06T06:43:58.749Z,11.63
2024-03-06T06:47:00.381Z,8.43
2024-03-06T06:50:06.172Z,8.63
2024-03-06T06:53:07.741Z,10.53
2024-03-06T06:56:09.454Z,9.17
2024-03-06T06:59:11.020Z,9.40
2024-03-06T07:02:12.645Z,8.77
2024-03-06T07:05:14.503Z,8.40
2024-03-06T07:08:16.101Z,9.17
2024-03-06T07:11:19.414Z,10.40
2024-03-06T07:14:21.114Z,8.23
2024-03-06T07:17:22.828Z,8.30
2024-03-06T07:20:24.383Z,11.70
2024-03-06T07:23:25.912Z,8.43
2024-03-06T07:26:30.218Z,7.37
2024-03-06T07:29:31.795Z,10.80
2024-03-06T07:32:33.285Z,12.27
2024-03-06T07:35:37.313Z,8.83
2024-03-06T07:38:38.989Z,9.13
2024-03-06T07:41:40.946Z,9.33
2024-03-06T07:44:42.509Z,12.40
2024-03-06T07:47:44.163Z,9.10
2024-03-06T07:50:45.737Z,8.80
2024-03-06T07:53:47.407Z,12.17
2024-03-06T07:56:49.338Z,9.43
2024-03-06T07:59:52.584Z,11.10
2024-03-06T08:02:54.017Z,11.77
2024-03-06T08:05:55.662Z,11.03
2024-03-06T08:08:58.002Z,13.67
2024-03-06T08:12:01.498Z,10.23
2024-03-06T08:15:04.154Z,11.77
2024-03-06T08:18:05.901Z,13.00
2024-03-06T08:21:07.928Z,13.13
2024-03-06T08:24:09.560Z,10.10
2024-03-06T08:27:11.025Z,12.10
2024-03-06T08:30:13.914Z,11.23
2024-03-06T08:33:15.481Z,8.13
2024-03-06T08:36:17.039Z,12.03
2024-03-06T08:39:18.601Z,10.07
2024-03-06T08:42:20.167Z,8.80
2024-03-06T08:45:21.839Z,8.97
2024-03-06T08:48:23.429Z,9.30
2024-03-06T08:51:26.443Z,9.47
2024-03-06T08:54:27.899Z,10.57
2024-03-06T08:57:31.713Z,11.87
2024-03-06T09:00:33.178Z,11.13
2024-03-06T09:03:34.588Z,12.07
2024-03-06T09:06:36.008Z,9.97
2024-03-06T09:09:38.364Z,9.33
2024-03-06T09:12:40.321Z,10.20
2024-03-06T09:15:41.744Z,9.07
2024-03-06T09:18:43.317Z,11.57
2024-03-06T09:21:44.901Z,8.47
2024-03-06T09:24:46.346Z,13.13
2024-03-06T09:27:47.789Z,9.47
2024-03-06T09:30:49.236Z,11.70
2024-03-06T09:33:50.805Z,11.17
2024-03-06T09:36:52.874Z,14.10
2024-03-06T09:39:54.316Z,11.13
2024-03-06T09:42:56.421Z,9.87
2024-03-06T09:45:58.133Z,10.70
2024-03-06T09:49:00.126Z,11.03
2024-03-06T09:52:04.956Z,11.40
2024-03-06T09:55:10.857Z,11.87
2024-03-06T09:58:12.492Z,11.27
2024-03-06T10:01:15.479Z,12.17
2024-03-06T10:04:22.177Z,9.73
2024-03-06T10:07:23.889Z,10.50
2024-03-06T10:10:25.386Z,11.47
2024-03-06T10:13:26.980Z,9.67
2024-03-06T10:16:28.416Z,10.33
2024-03-06T10:19:31.174Z,9.53
2024-03-06T10:22:32.866Z,12.17
2024-03-06T10:25:34.359Z,10.73
2024-03-06T10:28:36.107Z,10.30
2024-03-06T10:31:37.559Z,9.90
2024-03-06T10:34:41.586Z,11.43
2024-03-06T10:37:45.536Z,14.40
2024-03-06T10:40:47.834Z,14.07
2024-03-06T10:43:55.255Z,12.07
2024-03-06T10:47:01.359Z,12.07
2024-03-06T10:50:05.590Z,11.60
2024-03-06T10:53:11.439Z,9.90
2024-03-06T10:56:13.688Z,14.13
2024-03-06T10:59:17.072Z,14.43
2024-03-06T11:02:19.408Z,11.60
2024-03-06T11:05:21.108Z,13.20
2024-03-06T11:08:23.060Z,14.03
2024-03-06T11:11:25.872Z,14.30
2024-03-06T11:14:27.602Z,11.17
2024-03-06T11:17:29.638Z,14.27
2024-03-06T11:20:34.708Z,13.67
2024-03-06T11:23:36.243Z,10.93
2024-03-06T11:26:37.816Z,13.47
2024-03-06T11:30:11.832Z,13.80
2024-03-06T11:33:17.521Z,13.93
2024-03-06T11:36:24.453Z,13.00
2024-03-06T11:39:31.341Z,14.00
2024-03-06T11:42:39.959Z,14.60
2024-03-06T11:45:45.578Z,15.30
2024-03-06T11:48:56.857Z,16.00
2024-03-06T11:52:00.061Z,14.37
2024-03-06T11:55:01.646Z,14.57
2024-03-06T11:58:04.229Z,15.10
2024-03-06T12:01:06.009Z,14.40
2024-03-06T12:04:07.609Z,15.03
2024-03-06T12:07:10.125Z,17.63
2024-03-06T12:10:12.215Z,15.03
2024-03-06T12:13:14.429Z,13.97
2024-03-06T12:16:15.954Z,15.80
2024-03-06T12:19:17.417Z,13.40
2024-03-06T12:22:20.208Z,13.40
2024-03-06T12:25:26.631Z,15.37
2024-03-06T12:28:28.146Z,13.80
2024-03-06T12:31:29.624Z,13.53
2024-03-06T12:34:32.335Z,15.60
2024-03-06T12:37:34.732Z,14.37
2024-03-06T12:40:36.798Z,15.53
2024-03-06T12:43:38.267Z,14.93
2024-03-06T12:46:40.026Z,15.17
2024-03-06T12:49:41.487Z,14.33
2024-03-06T12:52:46.849Z,13.63
2024-03-06T12:55:49.500Z,15.57
2024-03-06T12:58:51.031Z,13.97
2024-03-06T13:01:52.491Z,14.77
2024-03-06T13:04:54.082Z,13.73
2024-03-06T13:07:55.550Z,16.13
2024-03-06T13:10:57.354Z,14.23
2024-03-06T13:13:59.024Z,15.73
2024-03-06T13:17:03.729Z,14.20
2024-03-06T13:20:05.937Z,14.57
2024-03-06T13:23:07.508Z,14.10
2024-03-06T13:26:09.128Z,15.10
2024-03-06T13:29:10.688Z,13.00
2024-03-06T13:32:12.255Z,13.47
2024-03-06T13:35:14.564Z,13.93
2024-03-06T13:38:16.063Z,13.70
2024-03-06T13:41:17.716Z,11.73
2024-03-06T13:44:19.644Z,12.27
2024-03-06T13:47:21.478Z,13.80
2024-03-06T13:50:24.791Z,12.33
2024-03-06T13:53:26.470Z,15.07
2024-03-06T13:56:27.967Z,14.93
2024-03-06T13:59:32.293Z,12.33
2024-03-06T14:02:33.983Z,12.17
2024-03-06T14:05:35.454Z,14.03
2024-03-06T14:08:39.086Z,14.07
2024-03-06T14:11:41.467Z,11.67
2024-03-06T14:14:43.143Z,12.27
2024-03-06T14:17:44.731Z,13.43
2024-03-06T14:20:46.288Z,13.73
2024-03-06T14:23:47.870Z,14.77
2024-03-06T14:26:50.078Z,15.17
2024-03-06T14:29:51.765Z,15.33
2024-03-06T14:32:53.358Z,20.63
2024-03-06T14:35:55.125Z,18.30
2024-03-06T14:38:56.650Z,17.03
2024-03-06T14:41:58.139Z,17.90
2024-03-06T14:44:59.896Z,17.50
2024-03-06T14:48:01.660Z,16.87
2024-03-06T14:51:03.329Z,17.30
2024-03-06T14:54:04.832Z,18.60
2024-03-06T14:57:07.105Z,17.67
2024-03-06T15:00:09.130Z,19.37
2024-03-06T15:03:10.969Z,16.83
2024-03-06T15:06:13.055Z,17.37
2024-03-06T15:09:21.238Z,17.07
2024-03-06T15:12:22.790Z,16.60
2024-03-06T15:15:24.670Z,18.37
2024-03-06T15:18:26.280Z,18.87
2024-03-06T15:21:27.840Z,18.37
2024-03-06T15:24:29.340Z,17.63
2024-03-06T15:27:30.761Z,17.90
2024-03-06T15:30:33.039Z,17.17
2024-03-06T15:33:34.634Z,19.60
2024-03-06T15:36:36.173Z,21.40
2024-03-06T15:39:37.589Z,24.23
2024-03-06T15:42:39.299Z,22.53
2024-03-06T15:45:40.838Z,21.40
2024-03-06T15:48:42.417Z,17.93
2024-03-06T15:51:43.971Z,19.77
2024-03-06T15:54:45.424Z,18.17
2024-03-06T15:57:46.933Z,18.57
2024-03-06T16:00:48.401Z,19.97
2024-03-06T16:03:53.346Z,18.90
2024-03-06T16:06:54.922Z,22.07
2024-03-06T16:09:57.378Z,20.47
2024-03-06T16:12:58.815Z,17.63
2024-03-06T16:16:00.368Z,18.50
2024-03-06T16:19:01.923Z,18.40
2024-03-06T16:22:03.675Z,16.90
2024-03-06T16:25:07.086Z,19.63
2024-03-06T16:28:08.601Z,22.43
2024-03-06T16:31:10.069Z,18.93
2024-03-06T16:34:11.532Z,21.10
2024-03-06T16:37:13.027Z,20.40
2024-03-06T16:40:14.494Z,26.07
2024-03-06T16:43:16.097Z,22.63
2024-03-06T16:46:18.326Z,20.00
2024-03-06T16:49:19.835Z,18.60
2024-03-06T16:52:22.878Z,20.43
2024-03-06T16:55:24.792Z,18.33
2024-03-06T16:58:26.351Z,19.47
2024-03-06T17:01:28.414Z,20.67
2024-03-06T17:04:30.001Z,15.90
2024-03-06T17:07:31.467Z,17.60
2024-03-06T17:10:33.038Z,15.27
2024-03-06T17:13:38.932Z,17.83
2024-03-06T17:16:40.373Z,19.23
2024-03-06T17:19:41.927Z,17.43
2024-03-06T17:22:43.366Z,18.37
2024-03-06T17:25:45.078Z,17.33
2024-03-06T17:28:50.370Z,18.20
2024-03-06T17:31:53.800Z,19.37
2024-03-06T17:34:55.462Z,19.13
2024-03-06T17:37:57.020Z,19.40
2024-03-06T17:40:58.465Z,19.90
2024-03-06T17:43:59.902Z,19.87
2024-03-06T17:47:01.388Z,17.67
2024-03-06T17:50:07.370Z,22.57
2024-03-06T17:53:10.736Z,19.37
2024-03-06T17:56:12.242Z,20.97
2024-03-06T17:59:13.814Z,20.47
2024-03-06T18:02:15.438Z,20.87
2024-03-06T18:05:17.873Z,19.77
2024-03-06T18:08:19.811Z,19.97
2024-03-06T18:11:22.708Z,23.43
2024-03-06T18:14:24.298Z,22.77
2024-03-06T18:17:26.696Z,28.87
2024-03-06T18:20:30.638Z,27.30
2024-03-06T18:23:32.618Z,52.97
2024-03-06T18:26:34.279Z,93.23
2024-03-06T18:29:35.885Z,110.13
2024-03-06T18:32:37.488Z,95.73
2024-03-06T18:35:39.062Z,29.03
2024-03-06T18:38:40.726Z,21.10
2024-03-06T18:41:42.682Z,22.00
2024-03-06T18:44:44.322Z,29.73
2024-03-06T18:47:47.476Z,41.73
2024-03-06T18:50:49.230Z,19.43
2024-03-06T18:53:50.933Z,17.83
2024-03-06T18:56:54.005Z,16.97
2024-03-06T18:59:55.648Z,19.90
2024-03-06T19:02:57.229Z,18.80
2024-03-06T19:05:58.822Z,17.73
2024-03-06T19:09:00.306Z,18.00
2024-03-06T19:12:01.896Z,19.17
2024-03-06T19:15:04.460Z,19.73
2024-03-06T19:18:06.154Z,21.57
2024-03-06T19:21:07.691Z,20.77
2024-03-06T19:24:09.210Z,19.80
2024-03-06T19:27:10.695Z,25.80
2024-03-06T19:30:12.409Z,23.67
2024-03-06T19:33:13.935Z,25.97
2024-03-06T19:36:15.477Z,23.80
2024-03-06T19:39:18.304Z,26.53
2024-03-06T19:42:20.429Z,25.23
2024-03-06T19:45:22.029Z,20.93
2024-03-06T19:48:23.964Z,23.43
2024-03-06T19:51:25.485Z,22.77
2024-03-06T19:54:30.104Z,23.57
2024-03-06T19:57:31.714Z,22.23
2024-03-06T20:00:34.753Z,24.07
2024-03-06T20:03:36.246Z,22.03
2024-03-06T20:06:38.669Z,22.70
2024-03-06T20:09:41.770Z,25.23
2024-03-06T20:12:43.405Z,25.47
2024-03-06T20:15:48.329Z,25.23
2024-03-06T20:18:49.875Z,27.17
2024-03-06T20:21:51.747Z,25.27
2024-03-06T20:24:53.282Z,27.60
2024-03-06T20:27:54.856Z,30.07
2024-03-06T20:30:56.359Z,28.53
2024-03-06T20:33:57.793Z,28.57
2024-03-06T20:36:59.352Z,25.57
2024-03-06T20:40:00.958Z,28.70
2024-03-06T20:43:02.601Z,30.73
2024-03-06T20:46:04.136Z,34.20
2024-03-06T20:49:07.613Z,29.77
2024-03-06T20:52:10.657Z,25.77
2024-03-06T20:55:12.446Z,24.33
2024-03-06T20:58:14.949Z,22.93
2024-03-06T21:01:16.544Z,25.93
2024-03-06T21:04:18.140Z,25.63
2024-03-06T21:07:19.796Z,25.30
2024-03-06T21:10:21.233Z,23.27
2024-03-06T21:13:22.851Z,23.30
2024-03-06T21:16:24.778Z,21.97
2024-03-06T21:19:26.205Z,23.30
2024-03-06T21:22:28.463Z,21.43
2024-03-06T21:25:29.935Z,21.40
2024-03-06T21:28:31.438Z,21.50
2024-03-06T21:31:32.906Z,20.90
2024-03-06T21:34:34.689Z,19.63
2024-03-06T21:37:36.354Z,19.03
2024-03-06T21:40:38.107Z,21.27
2024-03-06T21:43:39.591Z,20.23
2024-03-06T21:46:41.019Z,21.17
2024-03-06T21:49:42.501Z,19.40
2024-03-06T21:52:44.066Z,21.10
2024-03-06T21:55:45.604Z,22.40
2024-03-06T21:58:47.279Z,21.53
2024-03-06T22:01:48.806Z,17.60
2024-03-06T22:04:50.296Z,20.37
2024-03-06T22:07:52.296Z,17.27
2024-03-06T22:10:53.812Z,20.20
2024-03-06T22:13:56.514Z,19.50
2024-03-06T22:16:58.923Z,19.03
2024-03-06T22:20:00.610Z,20.47
2024-03-06T22:23:02.581Z,21.53
2024-03-06T22:26:04.229Z,18.53
2024-03-06T22:29:06.449Z,26.40
2024-03-06T22:32:07.938Z,18.80
2024-03-06T22:35:11.202Z,31.27
2024-03-06T22:38:12.960Z,17.90
2024-03-06T22:41:24.530Z,14.80
2024-03-06T22:44:26.004Z,17.33
2024-03-06T22:47:27.586Z,13.40
2024-03-06T22:50:29.276Z,21.73
2024-03-06T22:53:30.870Z,13.17
2024-03-06T22:56:33.353Z,18.37
2024-03-06T22:59:35.143Z,15.63
2024-03-06T23:02:36.753Z,12.87
2024-03-06T23:05:39.590Z,13.83
2024-03-06T23:08:41.251Z,13.60
2024-03-06T23:11:42.913Z,14.10
2024-03-06T23:14:44.553Z,14.43
2024-03-06T23:17:47.444Z,13.80
2024-03-06T23:20:50.001Z,12.10
2024-03-06T23:23:51.877Z,19.10
2024-03-06T23:26:53.522Z,14.87
2024-03-06T23:29:55.090Z,13.33
2024-03-06T23:32:56.820Z,19.33
2024-03-06T23:35:58.363Z,87.17
2024-03-06T23:38:59.947Z,14.93
2024-03-06T23:42:03.107Z,32.27
2024-03-06T23:45:05.974Z,15.47
2024-03-06T23:48:07.937Z,38.67
2024-03-06T23:51:09.921Z,30.67
2024-03-06T23:54:11.545Z,14.70
2024-03-06T23:57:13.551Z,15.77
